sensor_id;sensor_type;location;lat;lon;timestamp;P1;durP1;ratioP1;P2;durP2;ratioP2
5878;SDS011;2965;42.640;23.370;2023-04-24T04:02:38;20.03;;;12.43;;
5878;SDS011;2965;42.640;23.370;2023-04-24T04:05:04;19.70;;;13.40;;
5878;SDS011;2965;42.640;23.370;2023-04-24T04:07:30;20.53;;;13.50;;
5878;SDS011;2965;42.640;23.370;2023-04-24T04:09:55;18.13;;;13.90;;
5878;SDS011;2965;42.640;23.370;2023-04-24T04:12:20;19.00;;;13.60;;
5878;SDS011;2965;42.640;23.370;2023-04-24T04:14:47;17.07;;;13.07;;
5878;SDS011;2965;42.640;23.370;2023-04-24T04:17:13;22.03;;;12.80;;
5878;SDS011;2965;42.640;23.370;2023-04-24T04:19:40;22.70;;;12.43;;
5878;SDS011;2965;42.640;23.370;2023-04-24T04:22:05;16.90;;;12.37;;
5878;SDS011;2965;42.640;23.370;2023-04-24T04:24:33;19.63;;;12.27;;
5878;SDS011;2965;42.640;23.370;2023-04-24T04:26:58;20.13;;;13.00;;
5878;SDS011;2965;42.640;23.370;2023-04-24T04:29:24;21.50;;;12.93;;
5878;SDS011;2965;42.640;23.370;2023-04-24T04:31:50;15.57;;;12.20;;
5878;SDS011;2965;42.640;23.370;2023-04-24T04:34:16;27.70;;;13.70;;
5878;SDS011;2965;42.640;23.370;2023-04-24T04:36:41;20.60;;;13.77;;
5878;SDS011;2965;42.640;23.370;2023-04-24T04:39:08;23.80;;;12.10;;
5878;SDS011;2965;42.640;23.370;2023-04-24T04:41:33;18.80;;;12.80;;
5878;SDS011;2965;42.640;23.370;2023-04-24T04:44:02;20.10;;;12.93;;
5878;SDS011;2965;42.640;23.370;2023-04-24T04:46:29;31.13;;;15.00;;
5878;SDS011;2965;42.640;23.370;2023-04-24T04:48:57;26.53;;;13.27;;
5878;SDS011;2965;42.640;23.370;2023-04-24T04:51:24;17.40;;;13.40;;
5878;SDS011;2965;42.640;23.370;2023-04-24T04:53:49;23.90;;;15.10;;
5878;SDS011;2965;42.640;23.370;2023-04-24T04:56:15;20.70;;;12.30;;
5878;SDS011;2965;42.640;23.370;2023-04-24T04:58:40;13.57;;;11.87;;
5878;SDS011;2965;42.640;23.370;2023-04-24T05:01:06;22.13;;;13.40;;
5878;SDS011;2965;42.640;23.370;2023-04-24T05:03:32;25.50;;;13.60;;
5878;SDS011;2965;42.640;23.370;2023-04-24T05:05:57;30.27;;;12.47;;
5878;SDS011;2965;42.640;23.370;2023-04-24T05:08:23;25.13;;;13.60;;
5878;SDS011;2965;42.640;23.370;2023-04-24T05:10:48;23.67;;;13.30;;
5878;SDS011;2965;42.640;23.370;2023-04-24T05:13:13;28.63;;;14.10;;
5878;SDS011;2965;42.640;23.370;2023-04-24T05:15:39;18.53;;;12.57;;
5878;SDS011;2965;42.640;23.370;2023-04-24T05:18:04;23.23;;;12.63;;
5878;SDS011;2965;42.640;23.370;2023-04-24T05:20:30;14.60;;;12.03;;
5878;SDS011;2965;42.640;23.370;2023-04-24T05:22:55;15.10;;;10.87;;
5878;SDS011;2965;42.640;23.370;2023-04-24T05:25:21;26.53;;;11.23;;
5878;SDS011;2965;42.640;23.370;2023-04-24T05:27:46;17.40;;;10.77;;
5878;SDS011;2965;42.640;23.370;2023-04-24T05:30:12;23.90;;;11.93;;
5878;SDS011;2965;42.640;23.370;2023-04-24T05:32:37;13.27;;;10.97;;
5878;SDS011;2965;42.640;23.370;2023-04-24T05:35:03;22.13;;;11.27;;
5878;SDS011;2965;42.640;23.370;2023-04-24T05:37:29;13.80;;;11.20;;
5878;SDS011;2965;42.640;23.370;2023-04-24T05:39:54;18.40;;;12.97;;
5878;SDS011;2965;42.640;23.370;2023-04-24T05:42:19;13.33;;;11.57;;
5878;SDS011;2965;42.640;23.370;2023-04-24T05:44:45;18.60;;;12.00;;
5878;SDS011;2965;42.640;23.370;2023-04-24T05:47:10;14.73;;;11.00;;
5878;SDS011;2965;42.640;23.370;2023-04-24T05:49:36;19.27;;;10.77;;
5878;SDS011;2965;42.640;23.370;2023-04-24T05:52:01;13.63;;;11.30;;
5878;SDS011;2965;42.640;23.370;2023-04-24T05:54:29;11.73;;;9.60;;
5878;SDS011;2965;42.640;23.370;2023-04-24T05:56:54;12.17;;;10.90;;
5878;SDS011;2965;42.640;23.370;2023-04-24T05:59:20;11.37;;;9.93;;
5878;SDS011;2965;42.640;23.370;2023-04-24T16:15:14;9.67;;;8.40;;
5878;SDS011;2965;42.640;23.370;2023-04-24T16:17:40;11.20;;;9.40;;
5878;SDS011;2965;42.640;23.370;2023-04-24T16:20:05;8.80;;;8.10;;
5878;SDS011;2965;42.640;23.370;2023-04-24T16:22:31;10.83;;;8.10;;
5878;SDS011;2965;42.640;23.370;2023-04-24T16:24:57;8.67;;;7.87;;
5878;SDS011;2965;42.640;23.370;2023-04-24T16:27:23;19.13;;;11.80;;
5878;SDS011;2965;42.640;23.370;2023-04-24T16:29:50;22.97;;;12.53;;
5878;SDS011;2965;42.640;23.370;2023-04-24T16:32:15;18.73;;;14.43;;
5878;SDS011;2965;42.640;23.370;2023-04-24T16:34:41;20.27;;;12.40;;
5878;SDS011;2965;42.640;23.370;2023-04-24T16:37:07;13.30;;;11.90;;
5878;SDS011;2965;42.640;23.370;2023-04-24T16:39:33;17.80;;;11.50;;
5878;SDS011;2965;42.640;23.370;2023-04-24T16:41:59;15.07;;;11.77;;
5878;SDS011;2965;42.640;23.370;2023-04-24T16:44:28;13.20;;;11.83;;
5878;SDS011;2965;42.640;23.370;2023-04-24T16:46:53;15.63;;;12.30;;
5878;SDS011;2965;42.640;23.370;2023-04-24T16:49:19;16.60;;;12.27;;
5878;SDS011;2965;42.640;23.370;2023-04-24T16:51:45;14.37;;;10.50;;
5878;SDS011;2965;42.640;23.370;2023-04-24T16:54:10;13.00;;;11.70;;
5878;SDS011;2965;42.640;23.370;2023-04-24T16:56:39;25.17;;;11.97;;
5878;SDS011;2965;42.640;23.370;2023-04-24T16:59:06;12.53;;;11.23;;
5878;SDS011;2965;42.640;23.370;2023-04-24T17:01:32;20.63;;;12.17;;
5878;SDS011;2965;42.640;23.370;2023-04-24T17:03:57;14.13;;;12.63;;
5878;SDS011;2965;42.640;23.370;2023-04-24T17:06:23;16.07;;;12.60;;
5878;SDS011;2965;42.640;23.370;2023-04-24T17:08:49;21.50;;;13.30;;
5878;SDS011;2965;42.640;23.370;2023-04-24T17:11:14;20.43;;;12.57;;
5878;SDS011;2965;42.640;23.370;2023-04-24T17:13:40;14.00;;;11.77;;
5878;SDS011;2965;42.640;23.370;2023-04-24T17:16:05;17.60;;;13.20;;
5878;SDS011;2965;42.640;23.370;2023-04-24T17:18:31;15.80;;;12.57;;
5878;SDS011;2965;42.640;23.370;2023-04-24T17:20:57;17.60;;;13.27;;
5878;SDS011;2965;42.640;23.370;2023-04-24T17:23:23;19.83;;;14.67;;
5878;SDS011;2965;42.640;23.370;2023-04-24T17:25:48;22.43;;;16.27;;
5878;SDS011;2965;42.640;23.370;2023-04-24T17:28:16;22.83;;;14.60;;
5878;SDS011;2965;42.640;23.370;2023-04-24T17:31:02;20.20;;;13.17;;
5878;SDS011;2965;42.640;23.370;2023-04-24T17:33:28;18.87;;;13.83;;
5878;SDS011;2965;42.640;23.370;2023-04-24T17:35:55;19.73;;;14.70;;
5878;SDS011;2965;42.640;23.370;2023-04-24T17:38:26;25.03;;;14.70;;
5878;SDS011;2965;42.640;23.370;2023-04-24T17:40:52;23.97;;;13.90;;
5878;SDS011;2965;42.640;23.370;2023-04-24T17:43:18;20.07;;;15.40;;
5878;SDS011;2965;42.640;23.370;2023-04-24T17:45:45;29.97;;;14.90;;
5878;SDS011;2965;42.640;23.370;2023-04-24T17:48:11;23.67;;;14.43;;
5878;SDS011;2965;42.640;23.370;2023-04-24T17:50:38;16.90;;;11.90;;
5878;SDS011;2965;42.640;23.370;2023-04-24T17:53:03;15.93;;;13.30;;
5878;SDS011;2965;42.640;23.370;2023-04-24T17:55:29;15.77;;;13.40;;
5878;SDS011;2965;42.640;23.370;2023-04-24T17:57:54;16.97;;;14.07;;
5878;SDS011;2965;42.640;23.370;2023-04-24T18:00:20;17.20;;;14.23;;
5878;SDS011;2965;42.640;23.370;2023-04-24T18:02:45;23.53;;;14.00;;
5878;SDS011;2965;42.640;23.370;2023-04-24T18:05:11;20.77;;;14.07;;
5878;SDS011;2965;42.640;23.370;2023-04-24T18:07:36;21.20;;;14.47;;
5878;SDS011;2965;42.640;23.370;2023-04-24T18:10:03;16.93;;;14.27;;
5878;SDS011;2965;42.640;23.370;2023-04-24T18:12:28;22.20;;;15.60;;
